Terminal Aerodrome Forecast
Issued by NWS

Home | Current Version | Previous Version | Text Only | Print | Product List | Glossary On
Versions: 1 2 3 4 5 6 7 8 9 10 11 12 13 14 15 16 17 18 19 20 21 22 23 24
000
FTUS46 KMTR 291120
TAFSFO
TAF
KSFO 291120Z 2912/3018 28008KT P6SM FEW010 SCT015
      TEMPO 2913/2916 BKN015
     FM291700 04004KT P6SM FEW015
     FM292200 29015KT P6SM FEW015
     FM300400 29008KT P6SM FEW015
     FM300700 28007KT P6SM BKN015=

USA.gov is the U.S. government's official web portal to all federal, state and local government web resources and services.